sensor_id;sensor_type;location;lat;lon;timestamp;P1;durP1;ratioP1;P2;durP2;ratioP2
14001;SDS011;7076;51.280;12.584;2023-06-19T00:01:05;5.68;;;5.10;;
14001;SDS011;7076;51.280;12.584;2023-06-19T00:06:10;5.60;;;5.10;;
14001;SDS011;7076;51.280;12.584;2023-06-19T00:11:13;6.18;;;5.25;;
14001;SDS011;7076;51.280;12.584;2023-06-19T00:16:17;6.53;;;4.93;;
14001;SDS011;7076;51.280;12.584;2023-06-19T00:21:21;6.57;;;5.22;;
14001;SDS011;7076;51.280;12.584;2023-06-19T00:26:25;6.45;;;5.85;;
14001;SDS011;7076;51.280;12.584;2023-06-19T00:31:28;5.75;;;4.78;;
14001;SDS011;7076;51.280;12.584;2023-06-19T00:36:33;5.45;;;4.95;;
14001;SDS011;7076;51.280;12.584;2023-06-19T00:41:41;8.75;;;6.00;;
14001;SDS011;7076;51.280;12.584;2023-06-19T00:46:45;7.82;;;6.72;;
14001;SDS011;7076;51.280;12.584;2023-06-19T00:51:49;6.78;;;6.00;;
14001;SDS011;7076;51.280;12.584;2023-06-19T00:56:53;7.35;;;5.57;;
14001;SDS011;7076;51.280;12.584;2023-06-19T01:01:57;8.82;;;6.07;;
14001;SDS011;7076;51.280;12.584;2023-06-19T01:07:04;6.22;;;5.63;;
14001;SDS011;7076;51.280;12.584;2023-06-19T01:12:13;6.53;;;5.47;;
14001;SDS011;7076;51.280;12.584;2023-06-19T01:17:18;7.25;;;6.05;;
14001;SDS011;7076;51.280;12.584;2023-06-19T01:22:26;6.55;;;5.85;;
14001;SDS011;7076;51.280;12.584;2023-06-19T01:27:32;7.10;;;5.57;;
14001;SDS011;7076;51.280;12.584;2023-06-19T01:32:37;7.00;;;5.65;;
14001;SDS011;7076;51.280;12.584;2023-06-19T01:37:45;5.90;;;5.30;;
14001;SDS011;7076;51.280;12.584;2023-06-19T01:42:50;6.18;;;5.20;;
14001;SDS011;7076;51.280;12.584;2023-06-19T01:47:54;5.93;;;5.30;;
14001;SDS011;7076;51.280;12.584;2023-06-19T01:52:58;5.47;;;4.97;;
14001;SDS011;7076;51.280;12.584;2023-06-19T01:58:01;6.90;;;5.47;;
14001;SDS011;7076;51.280;12.584;2023-06-19T02:03:04;7.28;;;5.10;;
14001;SDS011;7076;51.280;12.584;2023-06-19T02:08:08;6.88;;;5.43;;
14001;SDS011;7076;51.280;12.584;2023-06-19T02:13:11;7.75;;;5.20;;
14001;SDS011;7076;51.280;12.584;2023-06-19T02:18:14;6.05;;;5.35;;
14001;SDS011;7076;51.280;12.584;2023-06-19T02:23:18;7.00;;;4.93;;
14001;SDS011;7076;51.280;12.584;2023-06-19T02:28:21;5.82;;;5.22;;
14001;SDS011;7076;51.280;12.584;2023-06-19T02:33:24;5.63;;;5.13;;
14001;SDS011;7076;51.280;12.584;2023-06-19T02:38:28;6.20;;;5.60;;
14001;SDS011;7076;51.280;12.584;2023-06-19T02:43:31;6.82;;;5.80;;
14001;SDS011;7076;51.280;12.584;2023-06-19T02:48:34;6.00;;;5.38;;
14001;SDS011;7076;51.280;12.584;2023-06-19T02:53:39;7.75;;;5.38;;
14001;SDS011;7076;51.280;12.584;2023-06-19T02:58:43;6.80;;;5.15;;
14001;SDS011;7076;51.280;12.584;2023-06-19T03:03:46;7.15;;;5.80;;
14001;SDS011;7076;51.280;12.584;2023-06-19T03:08:51;6.75;;;5.68;;
14001;SDS011;7076;51.280;12.584;2023-06-19T03:13:54;7.50;;;4.95;;
14001;SDS011;7076;51.280;12.584;2023-06-19T03:18:57;8.60;;;5.53;;
14001;SDS011;7076;51.280;12.584;2023-06-19T03:24:01;8.18;;;5.68;;
14001;SDS011;7076;51.280;12.584;2023-06-19T03:29:04;5.93;;;5.32;;
14001;SDS011;7076;51.280;12.584;2023-06-19T03:34:21;7.53;;;5.40;;
14001;SDS011;7076;51.280;12.584;2023-06-19T03:39:27;6.03;;;5.43;;
14001;SDS011;7076;51.280;12.584;2023-06-19T03:44:36;7.40;;;5.68;;
14001;SDS011;7076;51.280;12.584;2023-06-19T03:49:40;7.00;;;5.95;;
14001;SDS011;7076;51.280;12.584;2023-06-19T03:54:44;6.38;;;5.72;;
14001;SDS011;7076;51.280;12.584;2023-06-19T03:59:47;6.50;;;5.82;;
14001;SDS011;7076;51.280;12.584;2023-06-19T04:04:50;8.18;;;5.75;;
14001;SDS011;7076;51.280;12.584;2023-06-19T04:09:55;8.15;;;5.53;;
14001;SDS011;7076;51.280;12.584;2023-06-19T04:14:58;7.80;;;5.63;;
14001;SDS011;7076;51.280;12.584;2023-06-19T04:20:01;6.15;;;5.43;;
14001;SDS011;7076;51.280;12.584;2023-06-19T04:25:09;6.10;;;5.43;;
14001;SDS011;7076;51.280;12.584;2023-06-19T04:30:13;11.60;;;6.05;;
14001;SDS011;7076;51.280;12.584;2023-06-19T04:35:15;7.20;;;5.40;;
14001;SDS011;7076;51.280;12.584;2023-06-19T04:40:21;7.70;;;6.20;;
14001;SDS011;7076;51.280;12.584;2023-06-19T04:45:24;11.40;;;5.30;;
14001;SDS011;7076;51.280;12.584;2023-06-19T04:50:27;8.32;;;5.50;;
14001;SDS011;7076;51.280;12.584;2023-06-19T04:55:31;7.30;;;5.75;;
14001;SDS011;7076;51.280;12.584;2023-06-19T05:00:34;7.70;;;6.18;;
14001;SDS011;7076;51.280;12.584;2023-06-19T05:05:37;8.75;;;6.13;;
14001;SDS011;7076;51.280;12.584;2023-06-19T05:10:41;6.32;;;5.72;;
14001;SDS011;7076;51.280;12.584;2023-06-19T05:15:46;7.82;;;5.53;;
14001;SDS011;7076;51.280;12.584;2023-06-19T05:20:50;6.60;;;5.93;;
14001;SDS011;7076;51.280;12.584;2023-06-19T05:25:54;7.13;;;5.45;;
14001;SDS011;7076;51.280;12.584;2023-06-19T05:30:57;6.28;;;5.68;;
14001;SDS011;7076;51.280;12.584;2023-06-19T05:36:00;7.13;;;6.20;;
14001;SDS011;7076;51.280;12.584;2023-06-19T05:41:04;8.20;;;5.85;;
14001;SDS011;7076;51.280;12.584;2023-06-19T05:46:08;8.05;;;5.80;;
14001;SDS011;7076;51.280;12.584;2023-06-19T05:51:11;8.18;;;5.95;;
14001;SDS011;7076;51.280;12.584;2023-06-19T05:56:15;6.20;;;5.70;;
14001;SDS011;7076;51.280;12.584;2023-06-19T06:01:18;6.60;;;5.82;;
14001;SDS011;7076;51.280;12.584;2023-06-19T06:06:23;10.05;;;6.45;;
14001;SDS011;7076;51.280;12.584;2023-06-19T06:11:28;7.00;;;6.40;;
14001;SDS011;7076;51.280;12.584;2023-06-19T06:16:31;6.72;;;5.78;;
14001;SDS011;7076;51.280;12.584;2023-06-19T06:21:34;8.13;;;6.15;;
14001;SDS011;7076;51.280;12.584;2023-06-19T06:26:38;6.47;;;5.68;;
14001;SDS011;7076;51.280;12.584;2023-06-19T06:31:41;7.72;;;5.55;;
14001;SDS011;7076;51.280;12.584;2023-06-19T06:36:44;6.47;;;5.88;;
14001;SDS011;7076;51.280;12.584;2023-06-19T06:42:08;8.07;;;5.90;;
14001;SDS011;7076;51.280;12.584;2023-06-19T06:47:11;6.85;;;6.15;;
14001;SDS011;7076;51.280;12.584;2023-06-19T06:52:14;7.75;;;5.57;;
14001;SDS011;7076;51.280;12.584;2023-06-19T06:57:18;6.18;;;5.57;;
14001;SDS011;7076;51.280;12.584;2023-06-19T07:02:22;7.60;;;5.55;;
14001;SDS011;7076;51.280;12.584;2023-06-19T07:07:25;9.07;;;6.30;;
14001;SDS011;7076;51.280;12.584;2023-06-19T07:12:29;7.05;;;6.32;;
14001;SDS011;7076;51.280;12.584;2023-06-19T07:17:32;7.72;;;6.03;;
14001;SDS011;7076;51.280;12.584;2023-06-19T07:22:35;5.93;;;5.38;;
14001;SDS011;7076;51.280;12.584;2023-06-19T07:27:39;8.32;;;6.13;;
14001;SDS011;7076;51.280;12.584;2023-06-19T07:32:42;9.25;;;7.15;;
14001;SDS011;7076;51.280;12.584;2023-06-19T07:37:45;9.85;;;7.20;;
14001;SDS011;7076;51.280;12.584;2023-06-19T07:42:51;6.97;;;6.20;;
14001;SDS011;7076;51.280;12.584;2023-06-19T07:47:55;8.25;;;6.90;;
14001;SDS011;7076;51.280;12.584;2023-06-19T07:52:58;8.02;;;6.28;;
14001;SDS011;7076;51.280;12.584;2023-06-19T07:58:03;7.30;;;6.60;;
14001;SDS011;7076;51.280;12.584;2023-06-19T08:03:07;9.45;;;6.20;;
14001;SDS011;7076;51.280;12.584;2023-06-19T08:08:14;8.63;;;6.07;;
14001;SDS011;7076;51.280;12.584;2023-06-19T08:13:20;11.68;;;5.88;;
14001;SDS011;7076;51.280;12.584;2023-06-19T08:18:23;17.23;;;7.45;;
14001;SDS011;7076;51.280;12.584;2023-06-19T08:23:28;9.23;;;6.70;;
14001;SDS011;7076;51.280;12.584;2023-06-19T08:28:32;14.20;;;6.93;;
14001;SDS011;7076;51.280;12.584;2023-06-19T08:33:35;9.57;;;6.97;;
14001;SDS011;7076;51.280;12.584;2023-06-19T08:38:38;8.30;;;6.35;;
14001;SDS011;7076;51.280;12.584;2023-06-19T08:43:44;7.68;;;6.20;;
14001;SDS011;7076;51.280;12.584;2023-06-19T08:48:47;7.85;;;5.80;;
14001;SDS011;7076;51.280;12.584;2023-06-19T08:53:53;11.27;;;5.75;;
14001;SDS011;7076;51.280;12.584;2023-06-19T08:59:06;7.47;;;6.05;;
14001;SDS011;7076;51.280;12.584;2023-06-19T09:04:10;7.07;;;5.47;;
14001;SDS011;7076;51.280;12.584;2023-06-19T09:09:14;6.82;;;5.25;;
14001;SDS011;7076;51.280;12.584;2023-06-19T09:14:19;6.35;;;4.80;;
14001;SDS011;7076;51.280;12.584;2023-06-19T09:19:26;5.10;;;4.60;;
14001;SDS011;7076;51.280;12.584;2023-06-19T09:24:32;6.80;;;5.15;;
14001;SDS011;7076;51.280;12.584;2023-06-19T09:29:38;6.28;;;5.20;;
14001;SDS011;7076;51.280;12.584;2023-06-19T09:34:42;6.13;;;5.53;;
14001;SDS011;7076;51.280;12.584;2023-06-19T09:39:45;7.25;;;4.90;;
14001;SDS011;7076;51.280;12.584;2023-06-19T09:44:49;7.47;;;5.03;;
14001;SDS011;7076;51.280;12.584;2023-06-19T09:49:54;6.28;;;5.43;;
14001;SDS011;7076;51.280;12.584;2023-06-19T09:54:57;5.40;;;4.90;;
14001;SDS011;7076;51.280;12.584;2023-06-19T10:00:06;5.55;;;4.95;;
14001;SDS011;7076;51.280;12.584;2023-06-19T10:05:14;5.63;;;4.65;;
14001;SDS011;7076;51.280;12.584;2023-06-19T10:10:22;5.68;;;5.13;;
14001;SDS011;7076;51.280;12.584;2023-06-19T10:15:28;5.30;;;4.80;;
14001;SDS011;7076;51.280;12.584;2023-06-19T10:20:32;5.97;;;5.38;;
14001;SDS011;7076;51.280;12.584;2023-06-19T10:25:47;5.72;;;5.22;;
14001;SDS011;7076;51.280;12.584;2023-06-19T10:30:53;6.68;;;5.20;;
14001;SDS011;7076;51.280;12.584;2023-06-19T10:35:57;5.88;;;5.28;;
14001;SDS011;7076;51.280;12.584;2023-06-19T10:41:01;6.65;;;5.38;;
14001;SDS011;7076;51.280;12.584;2023-06-19T10:46:05;5.65;;;5.05;;
14001;SDS011;7076;51.280;12.584;2023-06-19T10:51:08;6.43;;;4.88;;
14001;SDS011;7076;51.280;12.584;2023-06-19T10:56:11;5.80;;;5.13;;
14001;SDS011;7076;51.280;12.584;2023-06-19T11:01:15;5.97;;;5.47;;
14001;SDS011;7076;51.280;12.584;2023-06-19T11:06:19;7.18;;;5.35;;
14001;SDS011;7076;51.280;12.584;2023-06-19T11:11:22;7.45;;;5.47;;
14001;SDS011;7076;51.280;12.584;2023-06-19T11:16:26;6.88;;;5.57;;
14001;SDS011;7076;51.280;12.584;2023-06-19T11:21:30;8.93;;;6.07;;
14001;SDS011;7076;51.280;12.584;2023-06-19T11:26:35;6.72;;;5.50;;
14001;SDS011;7076;51.280;12.584;2023-06-19T11:31:40;6.25;;;5.43;;
14001;SDS011;7076;51.280;12.584;2023-06-19T11:36:43;7.18;;;5.82;;
14001;SDS011;7076;51.280;12.584;2023-06-19T11:41:48;5.82;;;5.20;;
14001;SDS011;7076;51.280;12.584;2023-06-19T11:46:57;6.10;;;5.50;;
14001;SDS011;7076;51.280;12.584;2023-06-19T11:52:01;8.93;;;5.43;;
14001;SDS011;7076;51.280;12.584;2023-06-19T11:57:05;5.80;;;5.30;;
14001;SDS011;7076;51.280;12.584;2023-06-19T12:02:09;6.15;;;5.57;;
14001;SDS011;7076;51.280;12.584;2023-06-19T12:07:12;10.43;;;6.15;;
14001;SDS011;7076;51.280;12.584;2023-06-19T12:12:17;6.82;;;6.00;;
14001;SDS011;7076;51.280;12.584;2023-06-19T12:17:21;9.90;;;6.55;;
14001;SDS011;7076;51.280;12.584;2023-06-19T12:22:25;6.45;;;5.85;;
14001;SDS011;7076;51.280;12.584;2023-06-19T12:27:29;7.63;;;6.00;;
14001;SDS011;7076;51.280;12.584;2023-06-19T12:32:33;7.00;;;5.75;;
14001;SDS011;7076;51.280;12.584;2023-06-19T12:37:56;6.47;;;5.75;;
14001;SDS011;7076;51.280;12.584;2023-06-19T12:42:58;8.00;;;6.55;;
14001;SDS011;7076;51.280;12.584;2023-06-19T12:48:03;7.15;;;6.47;;
14001;SDS011;7076;51.280;12.584;2023-06-19T12:53:07;7.15;;;6.45;;
14001;SDS011;7076;51.280;12.584;2023-06-19T12:58:10;9.05;;;6.72;;
14001;SDS011;7076;51.280;12.584;2023-06-19T13:03:14;10.15;;;6.43;;
14001;SDS011;7076;51.280;12.584;2023-06-19T13:08:17;7.30;;;6.10;;
14001;SDS011;7076;51.280;12.584;2023-06-19T13:13:20;7.03;;;6.32;;
14001;SDS011;7076;51.280;12.584;2023-06-19T13:18:24;6.03;;;5.47;;
14001;SDS011;7076;51.280;12.584;2023-06-19T13:23:27;6.25;;;5.68;;
14001;SDS011;7076;51.280;12.584;2023-06-19T13:28:32;6.15;;;5.55;;
14001;SDS011;7076;51.280;12.584;2023-06-19T13:33:36;6.50;;;5.57;;
14001;SDS011;7076;51.280;12.584;2023-06-19T13:39:00;6.28;;;5.32;;
14001;SDS011;7076;51.280;12.584;2023-06-19T13:44:03;7.57;;;5.88;;
14001;SDS011;7076;51.280;12.584;2023-06-19T13:49:08;5.25;;;4.75;;
14001;SDS011;7076;51.280;12.584;2023-06-19T13:54:12;5.50;;;5.00;;
14001;SDS011;7076;51.280;12.584;2023-06-19T13:59:15;6.00;;;4.72;;
14001;SDS011;7076;51.280;12.584;2023-06-19T14:04:19;6.70;;;5.78;;
14001;SDS011;7076;51.280;12.584;2023-06-19T14:09:23;7.97;;;5.10;;
14001;SDS011;7076;51.280;12.584;2023-06-19T14:14:26;7.07;;;4.90;;
14001;SDS011;7076;51.280;12.584;2023-06-19T14:19:30;6.30;;;5.70;;
14001;SDS011;7076;51.280;12.584;2023-06-19T14:24:33;5.38;;;4.80;;
14001;SDS011;7076;51.280;12.584;2023-06-19T14:29:36;5.47;;;4.97;;
14001;SDS011;7076;51.280;12.584;2023-06-19T14:34:40;5.88;;;5.28;;
14001;SDS011;7076;51.280;12.584;2023-06-19T14:39:43;6.97;;;6.28;;
14001;SDS011;7076;51.280;12.584;2023-06-19T14:44:46;6.28;;;5.25;;
14001;SDS011;7076;51.280;12.584;2023-06-19T14:49:50;6.80;;;5.50;;
14001;SDS011;7076;51.280;12.584;2023-06-19T14:54:53;5.97;;;5.32;;
14001;SDS011;7076;51.280;12.584;2023-06-19T14:59:59;8.95;;;5.63;;
14001;SDS011;7076;51.280;12.584;2023-06-19T15:05:05;9.07;;;5.25;;
14001;SDS011;7076;51.280;12.584;2023-06-19T15:10:09;7.53;;;5.30;;
14001;SDS011;7076;51.280;12.584;2023-06-19T15:15:13;5.00;;;4.50;;
14001;SDS011;7076;51.280;12.584;2023-06-19T15:20:18;5.20;;;4.70;;
14001;SDS011;7076;51.280;12.584;2023-06-19T15:25:22;4.60;;;4.20;;
14001;SDS011;7076;51.280;12.584;2023-06-19T15:30:24;3.70;;;3.40;;
14001;SDS011;7076;51.280;12.584;2023-06-19T15:35:29;4.60;;;3.67;;
14001;SDS011;7076;51.280;12.584;2023-06-19T15:40:32;4.28;;;3.45;;
14001;SDS011;7076;51.280;12.584;2023-06-19T15:45:35;3.45;;;3.15;;
14001;SDS011;7076;51.280;12.584;2023-06-19T15:50:40;4.35;;;3.60;;
14001;SDS011;7076;51.280;12.584;2023-06-19T15:55:42;3.55;;;3.25;;
14001;SDS011;7076;51.280;12.584;2023-06-19T16:00:46;5.22;;;3.35;;
14001;SDS011;7076;51.280;12.584;2023-06-19T16:05:54;5.15;;;3.63;;
14001;SDS011;7076;51.280;12.584;2023-06-19T16:11:08;4.22;;;3.83;;
14001;SDS011;7076;51.280;12.584;2023-06-19T16:16:12;4.22;;;3.92;;
14001;SDS011;7076;51.280;12.584;2023-06-19T16:21:16;4.53;;;3.65;;
14001;SDS011;7076;51.280;12.584;2023-06-19T16:26:19;5.05;;;4.32;;
14001;SDS011;7076;51.280;12.584;2023-06-19T16:31:22;6.68;;;4.40;;
14001;SDS011;7076;51.280;12.584;2023-06-19T16:36:29;6.10;;;4.28;;
14001;SDS011;7076;51.280;12.584;2023-06-19T16:41:32;4.45;;;4.05;;
14001;SDS011;7076;51.280;12.584;2023-06-19T16:46:36;4.45;;;4.05;;
14001;SDS011;7076;51.280;12.584;2023-06-19T16:51:40;4.85;;;4.35;;
14001;SDS011;7076;51.280;12.584;2023-06-19T16:56:43;4.68;;;4.25;;
14001;SDS011;7076;51.280;12.584;2023-06-19T17:01:46;6.90;;;3.97;;
14001;SDS011;7076;51.280;12.584;2023-06-19T17:06:50;5.28;;;4.18;;
14001;SDS011;7076;51.280;12.584;2023-06-19T17:11:53;5.38;;;4.30;;
14001;SDS011;7076;51.280;12.584;2023-06-19T17:16:56;4.95;;;4.55;;
14001;SDS011;7076;51.280;12.584;2023-06-19T17:22:01;5.22;;;4.47;;
14001;SDS011;7076;51.280;12.584;2023-06-19T17:27:05;5.53;;;4.25;;
14001;SDS011;7076;51.280;12.584;2023-06-19T17:32:08;5.15;;;4.65;;
14001;SDS011;7076;51.280;12.584;2023-06-19T17:37:12;4.90;;;4.50;;
14001;SDS011;7076;51.280;12.584;2023-06-19T17:42:15;5.40;;;4.90;;
14001;SDS011;7076;51.280;12.584;2023-06-19T17:47:18;6.50;;;4.78;;
14001;SDS011;7076;51.280;12.584;2023-06-19T17:52:22;5.40;;;4.90;;
14001;SDS011;7076;51.280;12.584;2023-06-19T17:57:25;5.53;;;4.90;;
14001;SDS011;7076;51.280;12.584;2023-06-19T18:02:28;5.20;;;4.75;;
14001;SDS011;7076;51.280;12.584;2023-06-19T18:07:33;5.28;;;4.47;;
14001;SDS011;7076;51.280;12.584;2023-06-19T18:12:36;5.25;;;4.80;;
14001;SDS011;7076;51.280;12.584;2023-06-19T18:17:38;5.30;;;4.72;;
14001;SDS011;7076;51.280;12.584;2023-06-19T18:22:43;4.68;;;4.30;;
14001;SDS011;7076;51.280;12.584;2023-06-19T18:27:46;4.88;;;4.47;;
14001;SDS011;7076;51.280;12.584;2023-06-19T18:32:49;5.55;;;4.88;;
14001;SDS011;7076;51.280;12.584;2023-06-19T18:37:53;8.25;;;4.95;;
14001;SDS011;7076;51.280;12.584;2023-06-19T18:42:56;5.47;;;4.97;;
14001;SDS011;7076;51.280;12.584;2023-06-19T18:47:58;4.90;;;4.45;;
14001;SDS011;7076;51.280;12.584;2023-06-19T18:53:03;6.07;;;4.95;;
14001;SDS011;7076;51.280;12.584;2023-06-19T18:58:05;5.20;;;4.70;;
14001;SDS011;7076;51.280;12.584;2023-06-19T19:03:11;6.03;;;4.85;;
14001;SDS011;7076;51.280;12.584;2023-06-19T19:08:22;6.85;;;5.57;;
14001;SDS011;7076;51.280;12.584;2023-06-19T19:13:25;5.50;;;5.00;;
14001;SDS011;7076;51.280;12.584;2023-06-19T19:18:28;5.75;;;4.57;;
14001;SDS011;7076;51.280;12.584;2023-06-19T19:23:32;5.40;;;4.75;;
14001;SDS011;7076;51.280;12.584;2023-06-19T19:28:35;5.93;;;5.32;;
14001;SDS011;7076;51.280;12.584;2023-06-19T19:33:39;6.00;;;4.95;;
14001;SDS011;7076;51.280;12.584;2023-06-19T19:38:43;5.60;;;5.10;;
14001;SDS011;7076;51.280;12.584;2023-06-19T19:43:46;6.07;;;5.28;;
14001;SDS011;7076;51.280;12.584;2023-06-19T19:49:10;5.78;;;5.20;;
14001;SDS011;7076;51.280;12.584;2023-06-19T19:54:14;5.93;;;5.43;;
14001;SDS011;7076;51.280;12.584;2023-06-19T19:59:17;5.32;;;4.80;;
14001;SDS011;7076;51.280;12.584;2023-06-19T20:04:20;5.57;;;5.07;;
14001;SDS011;7076;51.280;12.584;2023-06-19T20:09:24;5.63;;;5.13;;
14001;SDS011;7076;51.280;12.584;2023-06-19T20:14:27;7.05;;;5.90;;
14001;SDS011;7076;51.280;12.584;2023-06-19T20:19:30;7.60;;;6.47;;
14001;SDS011;7076;51.280;12.584;2023-06-19T20:24:34;8.02;;;5.40;;
14001;SDS011;7076;51.280;12.584;2023-06-19T20:29:38;6.30;;;5.70;;
14001;SDS011;7076;51.280;12.584;2023-06-19T20:34:41;6.18;;;5.60;;
14001;SDS011;7076;51.280;12.584;2023-06-19T20:39:45;6.68;;;5.95;;
14001;SDS011;7076;51.280;12.584;2023-06-19T20:44:48;8.40;;;6.20;;
14001;SDS011;7076;51.280;12.584;2023-06-19T20:49:51;7.05;;;6.45;;
14001;SDS011;7076;51.280;12.584;2023-06-19T20:54:55;8.18;;;7.18;;
14001;SDS011;7076;51.280;12.584;2023-06-19T20:59:58;10.23;;;6.88;;
14001;SDS011;7076;51.280;12.584;2023-06-19T21:05:01;7.38;;;6.70;;
14001;SDS011;7076;51.280;12.584;2023-06-19T21:10:06;8.05;;;6.97;;
14001;SDS011;7076;51.280;12.584;2023-06-19T21:15:09;8.48;;;7.18;;
14001;SDS011;7076;51.280;12.584;2023-06-19T21:20:12;7.53;;;6.68;;
14001;SDS011;7076;51.280;12.584;2023-06-19T21:25:17;7.78;;;6.38;;
14001;SDS011;7076;51.280;12.584;2023-06-19T21:30:19;6.85;;;6.15;;
14001;SDS011;7076;51.280;12.584;2023-06-19T21:35:23;8.25;;;6.60;;
14001;SDS011;7076;51.280;12.584;2023-06-19T21:40:27;6.70;;;6.03;;
14001;SDS011;7076;51.280;12.584;2023-06-19T21:45:30;6.90;;;6.20;;
14001;SDS011;7076;51.280;12.584;2023-06-19T21:50:33;7.22;;;6.50;;
14001;SDS011;7076;51.280;12.584;2023-06-19T21:55:37;7.45;;;6.75;;
14001;SDS011;7076;51.280;12.584;2023-06-19T22:00:40;7.65;;;6.85;;
14001;SDS011;7076;51.280;12.584;2023-06-19T22:05:43;6.63;;;5.68;;
14001;SDS011;7076;51.280;12.584;2023-06-19T22:10:47;6.38;;;5.82;;
14001;SDS011;7076;51.280;12.584;2023-06-19T22:15:50;7.57;;;6.82;;
14001;SDS011;7076;51.280;12.584;2023-06-19T22:20:53;7.53;;;6.82;;
14001;SDS011;7076;51.280;12.584;2023-06-19T22:25:57;8.07;;;6.45;;
14001;SDS011;7076;51.280;12.584;2023-06-19T22:31:01;8.43;;;6.25;;
14001;SDS011;7076;51.280;12.584;2023-06-19T22:36:04;7.97;;;6.70;;
14001;SDS011;7076;51.280;12.584;2023-06-19T22:41:11;6.78;;;6.15;;
14001;SDS011;7076;51.280;12.584;2023-06-19T22:46:14;7.40;;;6.72;;
14001;SDS011;7076;51.280;12.584;2023-06-19T22:51:17;7.82;;;7.03;;
14001;SDS011;7076;51.280;12.584;2023-06-19T22:56:21;7.18;;;6.47;;
14001;SDS011;7076;51.280;12.584;2023-06-19T23:01:24;7.63;;;6.50;;
14001;SDS011;7076;51.280;12.584;2023-06-19T23:06:31;8.40;;;6.53;;
14001;SDS011;7076;51.280;12.584;2023-06-19T23:11:44;8.05;;;7.15;;
14001;SDS011;7076;51.280;12.584;2023-06-19T23:16:49;8.80;;;6.78;;
14001;SDS011;7076;51.280;12.584;2023-06-19T23:21:52;7.85;;;6.95;;
14001;SDS011;7076;51.280;12.584;2023-06-19T23:26:57;7.55;;;6.85;;
14001;SDS011;7076;51.280;12.584;2023-06-19T23:32:00;7.68;;;6.97;;
14001;SDS011;7076;51.280;12.584;2023-06-19T23:37:03;7.68;;;6.97;;
14001;SDS011;7076;51.280;12.584;2023-06-19T23:42:07;8.25;;;7.35;;
14001;SDS011;7076;51.280;12.584;2023-06-19T23:47:10;7.75;;;6.95;;
14001;SDS011;7076;51.280;12.584;2023-06-19T23:52:13;8.02;;;6.63;;
14001;SDS011;7076;51.280;12.584;2023-06-19T23:57:23;8.00;;;6.95;;
